sensor_id;sensor_type;location;lat;lon;timestamp;P1;durP1;ratioP1;P2;durP2;ratioP2
80344;SDS011;69658;44.498;0.166;2023-08-17T00:04:15;1.50;;;1.20;;
80344;SDS011;69658;44.498;0.166;2023-08-17T00:09:46;1.83;;;1.07;;
80344;SDS011;69658;44.498;0.166;2023-08-17T00:15:20;2.67;;;1.40;;
80344;SDS011;69658;44.498;0.166;2023-08-17T00:20:53;1.90;;;1.00;;
80344;SDS011;69658;44.498;0.166;2023-08-17T00:26:28;3.03;;;1.00;;
80344;SDS011;69658;44.498;0.166;2023-08-17T00:32:02;2.37;;;1.10;;
80344;SDS011;69658;44.498;0.166;2023-08-17T00:37:33;1.77;;;1.10;;
80344;SDS011;69658;44.498;0.166;2023-08-17T00:43:06;2.17;;;1.10;;
80344;SDS011;69658;44.498;0.166;2023-08-17T00:48:39;2.57;;;0.90;;
80344;SDS011;69658;44.498;0.166;2023-08-17T00:54:13;1.30;;;0.80;;
80344;SDS011;69658;44.498;0.166;2023-08-17T00:59:46;2.57;;;1.17;;
80344;SDS011;69658;44.498;0.166;2023-08-17T01:05:17;1.17;;;1.00;;
80344;SDS011;69658;44.498;0.166;2023-08-17T01:10:52;2.43;;;1.47;;
80344;SDS011;69658;44.498;0.166;2023-08-17T01:16:25;4.27;;;1.80;;
80344;SDS011;69658;44.498;0.166;2023-08-17T01:21:57;3.07;;;1.10;;
80344;SDS011;69658;44.498;0.166;2023-08-17T01:33:01;1.37;;;1.03;;
80344;SDS011;69658;44.498;0.166;2023-08-17T01:38:31;2.57;;;1.20;;
80344;SDS011;69658;44.498;0.166;2023-08-17T01:44:03;2.13;;;1.37;;
80344;SDS011;69658;44.498;0.166;2023-08-17T01:49:35;2.93;;;1.20;;
80344;SDS011;69658;44.498;0.166;2023-08-17T01:55:07;1.43;;;1.00;;
80344;SDS011;69658;44.498;0.166;2023-08-17T02:00:40;1.10;;;1.00;;
80344;SDS011;69658;44.498;0.166;2023-08-17T02:06:13;1.30;;;1.03;;
80344;SDS011;69658;44.498;0.166;2023-08-17T02:11:45;3.47;;;1.13;;
80344;SDS011;69658;44.498;0.166;2023-08-17T02:17:19;4.67;;;1.20;;
80344;SDS011;69658;44.498;0.166;2023-08-17T02:22:50;1.23;;;0.97;;
80344;SDS011;69658;44.498;0.166;2023-08-17T02:28:22;2.90;;;1.20;;
80344;SDS011;69658;44.498;0.166;2023-08-17T02:33:58;3.90;;;1.20;;
80344;SDS011;69658;44.498;0.166;2023-08-17T02:39:25;3.17;;;1.00;;
80344;SDS011;69658;44.498;0.166;2023-08-17T02:44:59;5.03;;;1.30;;
80344;SDS011;69658;44.498;0.166;2023-08-17T02:50:31;2.00;;;1.00;;
80344;SDS011;69658;44.498;0.166;2023-08-17T02:56:04;2.67;;;1.37;;
80344;SDS011;69658;44.498;0.166;2023-08-17T03:01:36;1.73;;;1.27;;
80344;SDS011;69658;44.498;0.166;2023-08-17T03:07:10;3.03;;;1.60;;
80344;SDS011;69658;44.498;0.166;2023-08-17T03:12:42;1.50;;;1.30;;
80344;SDS011;69658;44.498;0.166;2023-08-17T03:18:15;0.90;;;0.77;;
80344;SDS011;69658;44.498;0.166;2023-08-17T03:23:48;1.83;;;0.87;;
80344;SDS011;69658;44.498;0.166;2023-08-17T03:29:21;3.43;;;1.00;;
80344;SDS011;69658;44.498;0.166;2023-08-17T03:34:54;2.37;;;1.30;;
80344;SDS011;69658;44.498;0.166;2023-08-17T03:40:26;1.40;;;0.90;;
80344;SDS011;69658;44.498;0.166;2023-08-17T03:45:59;2.83;;;1.23;;
80344;SDS011;69658;44.498;0.166;2023-08-17T03:51:32;2.50;;;0.97;;
80344;SDS011;69658;44.498;0.166;2023-08-17T03:57:03;0.80;;;0.80;;
80344;SDS011;69658;44.498;0.166;2023-08-17T04:02:37;1.27;;;0.93;;
80344;SDS011;69658;44.498;0.166;2023-08-17T04:08:09;1.90;;;0.97;;
80344;SDS011;69658;44.498;0.166;2023-08-17T04:13:42;2.53;;;1.10;;
80344;SDS011;69658;44.498;0.166;2023-08-17T04:19:13;1.00;;;0.90;;
80344;SDS011;69658;44.498;0.166;2023-08-17T04:24:46;4.70;;;1.40;;
80344;SDS011;69658;44.498;0.166;2023-08-17T04:30:20;2.60;;;1.10;;
80344;SDS011;69658;44.498;0.166;2023-08-17T04:35:54;2.13;;;1.17;;
80344;SDS011;69658;44.498;0.166;2023-08-17T04:41:26;5.30;;;1.10;;
80344;SDS011;69658;44.498;0.166;2023-08-17T04:47:00;3.50;;;1.40;;
80344;SDS011;69658;44.498;0.166;2023-08-17T04:52:30;3.37;;;1.40;;
80344;SDS011;69658;44.498;0.166;2023-08-17T04:58:04;2.37;;;1.40;;
80344;SDS011;69658;44.498;0.166;2023-08-17T05:03:37;4.00;;;1.50;;
80344;SDS011;69658;44.498;0.166;2023-08-17T05:09:11;3.97;;;1.90;;
80344;SDS011;69658;44.498;0.166;2023-08-17T05:14:44;3.73;;;2.43;;
80344;SDS011;69658;44.498;0.166;2023-08-17T05:20:16;3.67;;;2.37;;
80344;SDS011;69658;44.498;0.166;2023-08-17T05:25:48;4.23;;;2.97;;
80344;SDS011;69658;44.498;0.166;2023-08-17T05:31:20;3.17;;;2.83;;
80344;SDS011;69658;44.498;0.166;2023-08-17T05:36:53;4.07;;;2.90;;
80344;SDS011;69658;44.498;0.166;2023-08-17T05:42:25;3.40;;;3.10;;
80344;SDS011;69658;44.498;0.166;2023-08-17T05:47:58;6.07;;;3.40;;
80344;SDS011;69658;44.498;0.166;2023-08-17T05:53:31;2.43;;;2.23;;
80344;SDS011;69658;44.498;0.166;2023-08-17T05:59:04;3.00;;;2.70;;
80344;SDS011;69658;44.498;0.166;2023-08-17T06:04:38;2.90;;;2.70;;
80344;SDS011;69658;44.498;0.166;2023-08-17T06:10:10;4.10;;;2.57;;
80344;SDS011;69658;44.498;0.166;2023-08-17T06:15:43;6.10;;;2.23;;
80344;SDS011;69658;44.498;0.166;2023-08-17T06:21:16;3.07;;;2.30;;
80344;SDS011;69658;44.498;0.166;2023-08-17T06:26:49;4.23;;;2.83;;
80344;SDS011;69658;44.498;0.166;2023-08-17T06:32:21;3.00;;;2.03;;
80344;SDS011;69658;44.498;0.166;2023-08-17T06:37:57;2.47;;;2.17;;
80344;SDS011;69658;44.498;0.166;2023-08-17T06:43:27;3.47;;;2.73;;
80344;SDS011;69658;44.498;0.166;2023-08-17T06:48:59;3.93;;;3.20;;
80344;SDS011;69658;44.498;0.166;2023-08-17T06:54:33;3.80;;;2.90;;
80344;SDS011;69658;44.498;0.166;2023-08-17T07:00:06;3.67;;;2.93;;
80344;SDS011;69658;44.498;0.166;2023-08-17T07:11:12;7.73;;;4.27;;
80344;SDS011;69658;44.498;0.166;2023-08-17T07:16:45;5.77;;;4.00;;
80344;SDS011;69658;44.498;0.166;2023-08-17T07:22:17;3.93;;;3.07;;
80344;SDS011;69658;44.498;0.166;2023-08-17T07:27:49;5.03;;;4.53;;
80344;SDS011;69658;44.498;0.166;2023-08-17T07:33:23;4.77;;;3.33;;
80344;SDS011;69658;44.498;0.166;2023-08-17T07:38:56;10.30;;;4.10;;
80344;SDS011;69658;44.498;0.166;2023-08-17T07:44:32;3.50;;;3.20;;
80344;SDS011;69658;44.498;0.166;2023-08-17T07:50:03;4.35;;;3.35;;
80344;SDS011;69658;44.498;0.166;2023-08-17T07:55:36;3.90;;;3.10;;
80344;SDS011;69658;44.498;0.166;2023-08-17T08:01:08;6.20;;;3.85;;
80344;SDS011;69658;44.498;0.166;2023-08-17T08:06:40;5.40;;;3.90;;
80344;SDS011;69658;44.498;0.166;2023-08-17T08:12:12;5.65;;;4.25;;
80344;SDS011;69658;44.498;0.166;2023-08-17T08:17:45;3.15;;;2.80;;
80344;SDS011;69658;44.498;0.166;2023-08-17T08:23:17;7.50;;;3.70;;
80344;SDS011;69658;44.498;0.166;2023-08-17T08:28:49;4.60;;;3.90;;
80344;SDS011;69658;44.498;0.166;2023-08-17T08:34:22;3.60;;;2.70;;
80344;SDS011;69658;44.498;0.166;2023-08-17T08:39:55;2.90;;;2.57;;
80344;SDS011;69658;44.498;0.166;2023-08-17T08:45:28;4.37;;;3.97;;
80344;SDS011;69658;44.498;0.166;2023-08-17T08:51:01;7.30;;;3.30;;
80344;SDS011;69658;44.498;0.166;2023-08-17T08:56:34;6.67;;;4.00;;
80344;SDS011;69658;44.498;0.166;2023-08-17T09:02:05;2.97;;;2.77;;
80344;SDS011;69658;44.498;0.166;2023-08-17T09:07:37;5.33;;;3.23;;
80344;SDS011;69658;44.498;0.166;2023-08-17T09:13:09;3.70;;;3.23;;
80344;SDS011;69658;44.498;0.166;2023-08-17T09:18:42;5.65;;;3.30;;
80344;SDS011;69658;44.498;0.166;2023-08-17T09:24:16;9.05;;;4.55;;
80344;SDS011;69658;44.498;0.166;2023-08-17T09:29:49;6.70;;;4.20;;
80344;SDS011;69658;44.498;0.166;2023-08-17T09:35:21;4.85;;;3.90;;
80344;SDS011;69658;44.498;0.166;2023-08-17T09:40:55;5.85;;;4.15;;
80344;SDS011;69658;44.498;0.166;2023-08-17T09:46:28;4.70;;;4.10;;
80344;SDS011;69658;44.498;0.166;2023-08-17T09:52:00;6.20;;;4.50;;
80344;SDS011;69658;44.498;0.166;2023-08-17T09:57:33;5.45;;;4.50;;
80344;SDS011;69658;44.498;0.166;2023-08-17T10:03:05;6.65;;;4.80;;
80344;SDS011;69658;44.498;0.166;2023-08-17T10:08:39;9.05;;;5.40;;
80344;SDS011;69658;44.498;0.166;2023-08-17T10:14:12;5.10;;;4.60;;
80344;SDS011;69658;44.498;0.166;2023-08-17T10:19:46;5.25;;;4.75;;
80344;SDS011;69658;44.498;0.166;2023-08-17T10:25:15;5.95;;;4.90;;
80344;SDS011;69658;44.498;0.166;2023-08-17T10:30:49;7.90;;;6.20;;
80344;SDS011;69658;44.498;0.166;2023-08-17T10:36:21;7.05;;;5.45;;
80344;SDS011;69658;44.498;0.166;2023-08-17T10:41:54;4.85;;;4.35;;
80344;SDS011;69658;44.498;0.166;2023-08-17T10:47:26;8.20;;;4.60;;
80344;SDS011;69658;44.498;0.166;2023-08-17T10:52:58;5.30;;;4.25;;
80344;SDS011;69658;44.498;0.166;2023-08-17T10:58:31;6.55;;;4.10;;
80344;SDS011;69658;44.498;0.166;2023-08-17T11:04:13;6.60;;;4.10;;
80344;SDS011;69658;44.498;0.166;2023-08-17T11:09:37;5.35;;;4.60;;
80344;SDS011;69658;44.498;0.166;2023-08-17T11:15:08;5.35;;;4.60;;
80344;SDS011;69658;44.498;0.166;2023-08-17T11:20:42;10.53;;;5.23;;
80344;SDS011;69658;44.498;0.166;2023-08-17T11:26:15;6.87;;;4.73;;
80344;SDS011;69658;44.498;0.166;2023-08-17T11:31:50;7.03;;;4.70;;
80344;SDS011;69658;44.498;0.166;2023-08-17T11:37:20;7.03;;;4.83;;
80344;SDS011;69658;44.498;0.166;2023-08-17T11:42:53;5.77;;;4.00;;
80344;SDS011;69658;44.498;0.166;2023-08-17T11:48:26;5.80;;;4.83;;
80344;SDS011;69658;44.498;0.166;2023-08-17T11:53:59;8.90;;;4.20;;
80344;SDS011;69658;44.498;0.166;2023-08-17T11:59:33;5.90;;;4.30;;
80344;SDS011;69658;44.498;0.166;2023-08-17T12:05:05;4.83;;;3.77;;
80344;SDS011;69658;44.498;0.166;2023-08-17T12:10:37;5.03;;;4.27;;
80344;SDS011;69658;44.498;0.166;2023-08-17T12:16:14;5.80;;;3.87;;
80344;SDS011;69658;44.498;0.166;2023-08-17T12:21:43;5.10;;;4.03;;
80344;SDS011;69658;44.498;0.166;2023-08-17T12:27:15;4.57;;;3.50;;
80344;SDS011;69658;44.498;0.166;2023-08-17T12:32:49;4.83;;;3.87;;
80344;SDS011;69658;44.498;0.166;2023-08-17T12:38:23;6.17;;;3.87;;
80344;SDS011;69658;44.498;0.166;2023-08-17T12:43:54;3.97;;;3.57;;
80344;SDS011;69658;44.498;0.166;2023-08-17T12:49:27;6.47;;;3.87;;
80344;SDS011;69658;44.498;0.166;2023-08-17T12:55:00;6.20;;;3.60;;
80344;SDS011;69658;44.498;0.166;2023-08-17T13:00:32;3.70;;;3.33;;
80344;SDS011;69658;44.498;0.166;2023-08-17T13:06:05;4.70;;;3.17;;
80344;SDS011;69658;44.498;0.166;2023-08-17T13:11:38;5.23;;;3.40;;
80344;SDS011;69658;44.498;0.166;2023-08-17T13:17:12;4.27;;;3.10;;
80344;SDS011;69658;44.498;0.166;2023-08-17T13:22:44;5.77;;;4.20;;
80344;SDS011;69658;44.498;0.166;2023-08-17T13:28:16;6.93;;;4.70;;
80344;SDS011;69658;44.498;0.166;2023-08-17T13:33:48;4.73;;;3.97;;
80344;SDS011;69658;44.498;0.166;2023-08-17T13:39:22;4.20;;;3.67;;
80344;SDS011;69658;44.498;0.166;2023-08-17T13:44:54;4.20;;;3.33;;
80344;SDS011;69658;44.498;0.166;2023-08-17T13:50:27;6.13;;;3.80;;
80344;SDS011;69658;44.498;0.166;2023-08-17T13:56:00;6.63;;;3.67;;
80344;SDS011;69658;44.498;0.166;2023-08-17T14:01:33;4.00;;;3.57;;
80344;SDS011;69658;44.498;0.166;2023-08-17T14:07:06;4.87;;;3.83;;
80344;SDS011;69658;44.498;0.166;2023-08-17T14:12:39;4.97;;;3.47;;
80344;SDS011;69658;44.498;0.166;2023-08-17T14:18:12;6.23;;;3.13;;
80344;SDS011;69658;44.498;0.166;2023-08-17T14:23:45;4.90;;;3.27;;
80344;SDS011;69658;44.498;0.166;2023-08-17T14:29:17;2.77;;;2.57;;
80344;SDS011;69658;44.498;0.166;2023-08-17T14:34:50;4.80;;;3.20;;
80344;SDS011;69658;44.498;0.166;2023-08-17T14:40:23;4.23;;;3.60;;
80344;SDS011;69658;44.498;0.166;2023-08-17T14:45:56;3.50;;;3.20;;
80344;SDS011;69658;44.498;0.166;2023-08-17T14:51:29;4.83;;;3.30;;
80344;SDS011;69658;44.498;0.166;2023-08-17T14:57:02;7.65;;;2.95;;
80344;SDS011;69658;44.498;0.166;2023-08-17T15:02:35;5.10;;;3.00;;
80344;SDS011;69658;44.498;0.166;2023-08-17T15:08:08;6.33;;;3.70;;
80344;SDS011;69658;44.498;0.166;2023-08-17T15:13:40;7.90;;;3.40;;
80344;SDS011;69658;44.498;0.166;2023-08-17T15:19:13;3.73;;;3.03;;
80344;SDS011;69658;44.498;0.166;2023-08-17T15:24:46;3.23;;;2.83;;
80344;SDS011;69658;44.498;0.166;2023-08-17T15:30:17;3.40;;;3.10;;
80344;SDS011;69658;44.498;0.166;2023-08-17T15:35:50;4.83;;;3.23;;
80344;SDS011;69658;44.498;0.166;2023-08-17T15:41:23;3.43;;;3.13;;
80344;SDS011;69658;44.498;0.166;2023-08-17T15:46:56;6.60;;;3.57;;
80344;SDS011;69658;44.498;0.166;2023-08-17T15:52:28;4.77;;;3.23;;
80344;SDS011;69658;44.498;0.166;2023-08-17T15:58:02;3.30;;;2.97;;
80344;SDS011;69658;44.498;0.166;2023-08-17T16:03:35;4.13;;;2.90;;
80344;SDS011;69658;44.498;0.166;2023-08-17T16:09:07;7.63;;;3.20;;
80344;SDS011;69658;44.498;0.166;2023-08-17T16:14:40;4.47;;;3.10;;
80344;SDS011;69658;44.498;0.166;2023-08-17T16:20:12;4.90;;;3.50;;
80344;SDS011;69658;44.498;0.166;2023-08-17T16:25:46;5.10;;;3.80;;
80344;SDS011;69658;44.498;0.166;2023-08-17T16:31:18;3.40;;;2.80;;
80344;SDS011;69658;44.498;0.166;2023-08-17T16:36:51;3.23;;;2.43;;
80344;SDS011;69658;44.498;0.166;2023-08-17T16:42:24;4.03;;;2.77;;
80344;SDS011;69658;44.498;0.166;2023-08-17T16:47:58;3.80;;;2.80;;
80344;SDS011;69658;44.498;0.166;2023-08-17T16:53:31;3.63;;;2.70;;
80344;SDS011;69658;44.498;0.166;2023-08-17T16:59:04;3.37;;;2.63;;
80344;SDS011;69658;44.498;0.166;2023-08-17T17:04:37;4.47;;;3.07;;
80344;SDS011;69658;44.498;0.166;2023-08-17T17:10:10;2.50;;;2.30;;
80344;SDS011;69658;44.498;0.166;2023-08-17T17:15:42;3.17;;;2.50;;
80344;SDS011;69658;44.498;0.166;2023-08-17T17:21:14;4.70;;;2.57;;
80344;SDS011;69658;44.498;0.166;2023-08-17T17:26:47;3.73;;;2.80;;
80344;SDS011;69658;44.498;0.166;2023-08-17T17:32:18;4.63;;;2.50;;
80344;SDS011;69658;44.498;0.166;2023-08-17T17:37:50;4.27;;;2.83;;
80344;SDS011;69658;44.498;0.166;2023-08-17T17:43:24;3.07;;;2.73;;
80344;SDS011;69658;44.498;0.166;2023-08-17T17:48:57;4.00;;;2.60;;
80344;SDS011;69658;44.498;0.166;2023-08-17T17:54:29;2.63;;;2.43;;
80344;SDS011;69658;44.498;0.166;2023-08-17T18:00:01;3.23;;;2.27;;
80344;SDS011;69658;44.498;0.166;2023-08-17T18:11:07;3.43;;;2.40;;
80344;SDS011;69658;44.498;0.166;2023-08-17T18:22:12;2.50;;;2.30;;
80344;SDS011;69658;44.498;0.166;2023-08-17T18:27:47;3.70;;;2.83;;
80344;SDS011;69658;44.498;0.166;2023-08-17T18:33:19;3.33;;;3.00;;
80344;SDS011;69658;44.498;0.166;2023-08-17T18:38:52;7.00;;;2.87;;
80344;SDS011;69658;44.498;0.166;2023-08-17T18:44:23;3.00;;;2.80;;
80344;SDS011;69658;44.498;0.166;2023-08-17T21:14:00;8.20;;;5.07;;
80344;SDS011;69658;44.498;0.166;2023-08-17T21:25:06;9.03;;;5.30;;
80344;SDS011;69658;44.498;0.166;2023-08-17T21:30:38;10.80;;;6.27;;
80344;SDS011;69658;44.498;0.166;2023-08-17T21:36:10;8.23;;;5.17;;
80344;SDS011;69658;44.498;0.166;2023-08-17T21:41:43;7.20;;;5.33;;
80344;SDS011;69658;44.498;0.166;2023-08-17T21:47:16;9.70;;;5.37;;
80344;SDS011;69658;44.498;0.166;2023-08-17T21:52:48;8.43;;;6.10;;
80344;SDS011;69658;44.498;0.166;2023-08-17T21:58:21;6.10;;;4.93;;
80344;SDS011;69658;44.498;0.166;2023-08-17T22:03:53;11.73;;;6.67;;
80344;SDS011;69658;44.498;0.166;2023-08-17T22:09:25;12.07;;;5.70;;
80344;SDS011;69658;44.498;0.166;2023-08-17T22:14:59;9.67;;;5.53;;
80344;SDS011;69658;44.498;0.166;2023-08-17T22:20:30;7.93;;;5.57;;
80344;SDS011;69658;44.498;0.166;2023-08-17T22:26:02;11.57;;;6.90;;
80344;SDS011;69658;44.498;0.166;2023-08-17T22:31:36;8.50;;;6.93;;
80344;SDS011;69658;44.498;0.166;2023-08-17T22:37:09;12.63;;;7.67;;
80344;SDS011;69658;44.498;0.166;2023-08-17T22:42:41;8.60;;;6.67;;
80344;SDS011;69658;44.498;0.166;2023-08-17T22:48:15;9.10;;;6.17;;
80344;SDS011;69658;44.498;0.166;2023-08-17T22:53:47;8.73;;;6.50;;
80344;SDS011;69658;44.498;0.166;2023-08-17T22:59:20;6.87;;;5.17;;
80344;SDS011;69658;44.498;0.166;2023-08-17T23:04:52;13.07;;;6.93;;
80344;SDS011;69658;44.498;0.166;2023-08-17T23:10:25;8.60;;;5.50;;
80344;SDS011;69658;44.498;0.166;2023-08-17T23:15:58;15.93;;;9.80;;
80344;SDS011;69658;44.498;0.166;2023-08-17T23:21:31;9.27;;;7.17;;
80344;SDS011;69658;44.498;0.166;2023-08-17T23:27:06;12.77;;;7.87;;
80344;SDS011;69658;44.498;0.166;2023-08-17T23:32:35;11.13;;;7.10;;
80344;SDS011;69658;44.498;0.166;2023-08-17T23:38:09;9.90;;;6.73;;
80344;SDS011;69658;44.498;0.166;2023-08-17T23:43:41;7.60;;;6.03;;
80344;SDS011;69658;44.498;0.166;2023-08-17T23:49:13;6.73;;;5.40;;
80344;SDS011;69658;44.498;0.166;2023-08-17T23:54:45;8.73;;;5.77;;
